Time;durP1;ratioP1;P1;durP2;ratioP2;P2;SDS_P1;SDS_P2;PMS_P1;PMS_P2;Temp;Humidity;BMP_temperature;BMP_pressure;BME280_temperature;BME280_humidity;BME280_pressure;Samples;Min_cycle;Max_cycle;Signal;HPM_P1;HPM_P2
2023/09/24 00:00:20;;;;;;;4.50;3.10;;;;;;;10.47;100.00;102291.59;6312457;22;20015;-76
2023/09/24 00:02:48;;;;;;;4.22;3.20;;;;;;;10.44;100.00;102297.72;6312483;22;20015;-76
2023/09/24 00:05:16;;;;;;;2.97;2.65;;;;;;;10.43;100.00;102301.56;6311683;22;20012;-76
2023/09/24 00:07:43;;;;;;;3.08;2.88;;;;;;;10.42;100.00;102299.28;6312428;22;20050;-76
2023/09/24 00:10:10;;;;;;;3.47;3.28;;;;;;;10.39;100.00;102302.78;6310466;22;20035;-76
2023/09/24 00:12:38;;;;;;;5.05;3.00;;;;;;;10.34;100.00;102304.72;6311362;22;20095;-76
2023/09/24 00:15:07;;;;;;;3.33;3.08;;;;;;;10.31;100.00;102305.53;6311446;22;20055;-75
2023/09/24 00:17:34;;;;;;;4.60;3.03;;;;;;;10.28;100.00;102311.66;6311553;22;20015;-76
2023/09/24 00:20:00;;;;;;;4.80;3.50;;;;;;;10.26;100.00;102319.28;6313043;22;20015;-75
2023/09/24 00:22:27;;;;;;;5.00;3.45;;;;;;;10.26;100.00;102319.28;6310108;22;20083;-75
2023/09/24 00:24:54;;;;;;;4.30;3.90;;;;;;;10.23;100.00;102327.28;6284897;22;20450;-76
2023/09/24 00:27:20;;;;;;;4.43;3.92;;;;;;;10.22;100.00;102321.22;6310139;22;20020;-76
2023/09/24 00:29:47;;;;;;;4.00;3.60;;;;;;;10.20;100.00;102323.53;6312584;22;20012;-75
2023/09/24 00:32:14;;;;;;;3.85;3.55;;;;;;;10.19;100.00;102330.00;6312015;22;20404;-75
2023/09/24 00:34:41;;;;;;;5.20;3.53;;;;;;;10.17;100.00;102321.63;6284698;22;20022;-75
2023/09/24 00:37:11;;;;;;;3.80;3.50;;;;;;;10.15;100.00;102317.84;6310350;22;20040;-75
2023/09/24 00:39:38;;;;;;;3.97;3.67;;;;;;;10.10;100.00;102321.69;6310263;22;20055;-74
2023/09/24 00:42:06;;;;;;;4.50;4.07;;;;;;;10.07;100.00;102322.50;6311874;22;20054;-75
2023/09/24 00:44:32;;;;;;;4.63;4.10;;;;;;;10.06;100.00;102334.28;6312057;22;20016;-75
2023/09/24 00:46:59;;;;;;;6.20;4.20;;;;;;;10.04;100.00;102339.25;6312686;22;20011;-75
2023/09/24 00:49:27;;;;;;;4.90;4.22;;;;;;;10.00;100.00;102333.97;6311799;22;20480;-76
2023/09/24 00:51:54;;;;;;;6.32;4.57;;;;;;;9.98;100.00;102333.63;6312605;22;20454;-75
2023/09/24 00:54:21;;;;;;;7.93;4.30;;;;;;;9.96;100.00;102327.19;6311882;22;20111;-75
2023/09/24 00:56:49;;;;;;;5.90;4.22;;;;;;;9.94;100.00;102335.56;6310185;22;20468;-75
2023/09/24 00:59:17;;;;;;;4.50;3.95;;;;;;;9.92;100.00;102339.78;6310263;22;20024;-75
2023/09/24 01:01:44;;;;;;;4.25;3.85;;;;;;;9.89;100.00;102337.91;6309876;22;20465;-75
2023/09/24 01:04:12;;;;;;;3.67;3.38;;;;;;;9.87;100.00;102329.56;6312018;22;20012;-75
2023/09/24 01:06:39;;;;;;;3.58;3.30;;;;;;;9.84;100.00;102335.66;6312174;22;20456;-77
2023/09/24 01:09:08;;;;;;;4.15;3.80;;;;;;;9.82;100.00;102335.31;6310250;22;20016;-76
2023/09/24 01:11:38;;;;;;;4.78;3.55;;;;;;;9.79;100.00;102336.09;6309673;22;20024;-76
2023/09/24 01:14:05;;;;;;;7.85;3.38;;;;;;;9.75;100.00;102333.47;6312432;22;20449;-76
2023/09/24 01:16:37;;;;;;;4.63;3.85;;;;;;;9.75;100.00;102332.72;6310130;22;20054;-76
2023/09/24 01:19:07;;;;;;;3.88;3.47;;;;;;;9.73;100.00;102335.75;6310270;22;20073;-76
2023/09/24 01:21:36;;;;;;;5.15;3.53;;;;;;;9.70;100.00;102337.31;6309828;22;20055;-76
2023/09/24 01:24:04;;;;;;;4.50;3.45;;;;;;;9.65;100.00;102329.75;6312509;22;20450;-76
2023/09/24 01:26:31;;;;;;;4.45;3.70;;;;;;;9.61;100.00;102329.03;6309596;22;20066;-75
2023/09/24 01:28:58;;;;;;;5.13;3.80;;;;;;;9.63;100.00;102331.28;6312282;22;20066;-75
2023/09/24 01:31:26;;;;;;;3.80;3.50;;;;;;;9.60;100.00;102327.53;6309708;22;20461;-75
2023/09/24 01:33:53;;;;;;;5.40;4.10;;;;;;;9.59;100.00;102334.00;6312288;22;20074;-75
2023/09/24 01:36:21;;;;;;;3.95;3.65;;;;;;;9.58;100.00;102326.44;6309753;22;20527;-75
2023/09/24 01:38:48;;;;;;;4.50;3.60;;;;;;;9.54;100.00;102329.13;6312161;22;20012;-75
2023/09/24 01:41:15;;;;;;;5.55;3.90;;;;;;;9.53;100.00;102326.84;6309515;22;20031;-75
2023/09/24 01:43:45;;;;;;;4.20;3.90;;;;;;;9.51;100.00;102326.50;6311819;22;20019;-75
2023/09/24 01:46:15;;;;;;;5.20;4.28;;;;;;;9.49;100.00;102331.44;6311873;22;20015;-75
2023/09/24 01:48:43;;;;;;;9.73;4.80;;;;;;;9.46;100.00;102329.56;6311539;22;20061;-75
2023/09/24 01:51:11;;;;;;;6.95;4.82;;;;;;;9.44;100.00;102335.28;6309901;22;20046;-75
2023/09/24 01:53:38;;;;;;;5.90;4.60;;;;;;;9.45;100.00;102336.03;6311839;22;20019;-75
2023/09/24 01:56:06;;;;;;;5.90;4.85;;;;;;;9.46;100.00;102334.88;6309549;22;20022;-74
2023/09/24 01:58:32;;;;;;;6.32;5.60;;;;;;;9.43;100.00;102333.75;6284127;22;20416;-77
2023/09/24 02:01:02;;;;;;;7.65;4.88;;;;;;;9.44;100.00;102331.84;6310274;22;20075;-75
2023/09/24 02:03:29;;;;;;;8.60;5.63;;;;;;;9.42;100.00;102323.53;6283585;22;20535;-75
2023/09/24 02:05:57;;;;;;;6.72;4.95;;;;;;;9.42;100.00;102336.81;6284612;22;20331;-75
2023/09/24 02:08:24;;;;;;;7.93;5.15;;;;;;;9.39;100.00;102326.97;6309633;22;20039;-76
2023/09/24 02:10:51;;;;;;;6.65;5.32;;;;;;;9.34;100.00;102330.78;6283966;22;20024;-75
2023/09/24 02:13:20;;;;;;;7.07;4.95;;;;;;;9.32;100.00;102330.44;6309527;22;20016;-75
2023/09/24 02:15:48;;;;;;;6.03;5.22;;;;;;;9.32;100.00;102328.53;6310221;22;20099;-75
2023/09/24 02:18:15;;;;;;;7.25;5.55;;;;;;;9.31;100.00;102323.59;6311644;22;20438;-75
2023/09/24 02:20:46;;;;;;;9.55;6.07;;;;;;;9.30;100.00;102328.16;6309569;22;20034;-75
2023/09/24 02:23:13;;;;;;;7.50;5.50;;;;;;;9.27;100.00;102338.81;6311628;22;20012;-75
2023/09/24 02:25:45;;;;;;;9.18;5.50;;;;;;;9.27;100.00;102331.59;6311395;22;20457;-76
2023/09/24 02:28:12;;;;;;;7.65;5.57;;;;;;;9.27;100.00;102336.16;6309864;22;20556;-76
2023/09/24 02:30:40;;;;;;;9.05;5.53;;;;;;;9.23;100.00;102340.75;6309889;22;20023;-76
2023/09/24 02:33:07;;;;;;;11.15;5.70;;;;;;;9.20;100.00;102336.19;6311388;22;20050;-76
2023/09/24 02:35:34;;;;;;;6.65;5.63;;;;;;;9.19;100.00;102340.78;6311753;22;20019;-76
2023/09/24 02:38:01;;;;;;;8.70;5.47;;;;;;;9.19;100.00;102342.69;6309746;22;20434;-75
2023/09/24 02:40:28;;;;;;;6.03;5.35;;;;;;;9.17;100.00;102337.00;6310787;22;20051;-75
2023/09/24 02:43:01;;;;;;;8.20;5.28;;;;;;;9.15;100.00;102340.06;6311969;22;20453;-76
2023/09/24 02:45:33;;;;;;;6.53;5.50;;;;;;;9.16;100.00;102335.50;6311302;22;20023;-75
2023/09/24 02:48:00;;;;;;;9.82;5.60;;;;;;;9.15;100.00;102340.06;6284527;22;20016;-75
2023/09/24 02:50:28;;;;;;;8.60;6.00;;;;;;;9.15;100.00;102349.94;6309525;22;20454;-75
2023/09/24 02:52:58;;;;;;;11.07;5.75;;;;;;;9.13;100.00;102341.59;6311261;22;20016;-75
2023/09/24 02:55:28;;;;;;;10.23;5.47;;;;;;;9.12;100.00;102343.50;6311030;22;20016;-75
2023/09/24 02:57:56;;;;;;;8.95;5.88;;;;;;;9.12;100.00;102346.16;6311868;22;20032;-75
2023/09/24 03:00:43;;;;;;;7.85;5.68;;;;;;;9.11;100.00;102341.97;6308386;22;20098;-75
2023/09/24 03:03:10;;;;;;;11.32;5.82;;;;;;;9.10;100.00;102353.75;6311546;22;20018;-76
2023/09/24 03:05:37;;;;;;;6.45;5.78;;;;;;;9.07;100.00;102343.16;6311634;22;20012;-75
2023/09/24 03:08:05;;;;;;;11.27;5.78;;;;;;;9.06;100.00;102345.03;6311035;22;20047;-76
2023/09/24 03:10:34;;;;;;;8.35;5.80;;;;;;;9.03;100.00;102356.44;6309402;22;20015;-76
2023/09/24 03:13:04;;;;;;;9.07;6.32;;;;;;;9.01;100.00;102359.50;6309790;22;20043;-76
2023/09/24 03:15:33;;;;;;;8.20;6.00;;;;;;;9.00;100.00;102365.19;6311308;22;20015;-76
2023/09/24 03:18:02;;;;;;;11.82;5.80;;;;;;;8.99;100.00;102359.13;6311825;22;20016;-76
2023/09/24 03:20:29;;;;;;;6.90;5.88;;;;;;;9.00;100.00;102359.88;6310528;22;20051;-76
2023/09/24 03:23:02;;;;;;;8.63;5.25;;;;;;;8.95;100.00;102371.66;6309500;22;20020;-75
2023/09/24 03:25:30;;;;;;;8.65;5.97;;;;;;;8.92;100.00;102374.34;6309814;22;20020;-76
2023/09/24 03:27:59;;;;;;;7.45;5.80;;;;;;;8.90;100.00;102377.38;6311116;22;20015;-76
2023/09/24 03:30:26;;;;;;;8.15;5.50;;;;;;;8.88;100.00;102374.34;6312147;22;20326;-75
2023/09/24 03:32:55;;;;;;;8.65;6.15;;;;;;;8.87;100.00;102372.09;6313066;22;20434;-76
2023/09/24 03:35:24;;;;;;;6.32;5.72;;;;;;;8.83;100.00;102381.97;6310366;22;20016;-75
2023/09/24 03:37:53;;;;;;;8.98;5.80;;;;;;;8.79;100.00;102376.69;6310313;22;20091;-75
2023/09/24 03:40:24;;;;;;;7.22;5.82;;;;;;;8.78;100.00;102385.81;6311771;22;20024;-75
2023/09/24 03:42:51;;;;;;;7.15;6.35;;;;;;;8.77;100.00;102379.00;6311124;22;20012;-75
2023/09/24 03:45:20;;;;;;;13.45;6.25;;;;;;;8.77;100.00;102386.19;6310657;22;20016;-75
2023/09/24 03:47:47;;;;;;;7.78;6.13;;;;;;;8.73;100.00;102383.56;6310840;22;20016;-76
2023/09/24 03:50:16;;;;;;;11.50;5.93;;;;;;;8.72;100.00;102383.94;6312591;22;20146;-75
2023/09/24 03:52:45;;;;;;;6.93;6.13;;;;;;;8.71;100.00;102390.41;6311986;22;20011;-75
2023/09/24 03:55:12;;;;;;;7.50;6.72;;;;;;;8.69;100.00;102386.22;6310545;22;20016;-76
2023/09/24 03:57:39;;;;;;;6.80;6.13;;;;;;;8.69;100.00;102388.13;6310328;22;20054;-76
2023/09/24 04:00:18;;;;;;;7.78;6.30;;;;;;;8.67;100.00;102388.50;6310482;22;20422;-75
2023/09/24 04:02:48;;;;;;;6.95;6.10;;;;;;;8.67;100.00;102393.06;6312671;22;20534;-76
2023/09/24 04:05:19;;;;;;;12.43;6.47;;;;;;;8.65;100.00;102398.00;6310308;22;20433;-75
2023/09/24 04:07:49;;;;;;;7.03;6.05;;;;;;;8.63;100.00;102398.38;6310588;22;20016;-75
2023/09/24 04:10:17;;;;;;;6.60;5.90;;;;;;;8.61;100.00;102394.59;6310179;22;20457;-76
2023/09/24 04:12:51;;;;;;;6.88;6.10;;;;;;;8.60;100.00;102395.75;6312549;22;20012;-75
2023/09/24 04:15:21;;;;;;;9.57;6.25;;;;;;;8.60;100.00;102414.31;6312023;22;20023;-75
2023/09/24 04:17:49;;;;;;;6.88;6.18;;;;;;;8.56;100.00;102402.97;6312634;22;20039;-75
2023/09/24 04:20:17;;;;;;;6.50;5.90;;;;;;;8.55;100.00;102396.13;6311086;22;20020;-75
2023/09/24 04:22:44;;;;;;;7.43;5.65;;;;;;;8.54;100.00;102398.03;6312626;22;20019;-75
2023/09/24 04:25:15;;;;;;;7.55;5.72;;;;;;;8.50;100.00;102399.94;6310454;22;20015;-75
2023/09/24 04:27:42;;;;;;;9.07;6.57;;;;;;;8.49;100.00;102406.38;6312265;22;20095;-76
2023/09/24 04:30:16;;;;;;;9.35;6.43;;;;;;;8.48;100.00;102412.06;6312093;22;20054;-76
2023/09/24 04:32:47;;;;;;;6.30;5.70;;;;;;;8.42;100.00;102411.72;6312526;22;20016;-75
2023/09/24 04:35:16;;;;;;;9.82;6.07;;;;;;;8.41;100.00;102417.41;6311760;22;20016;-76
2023/09/24 04:37:43;;;;;;;9.18;5.72;;;;;;;8.41;100.00;102420.06;6312105;22;20016;-75
2023/09/24 04:40:14;;;;;;;7.22;5.80;;;;;;;8.39;100.00;102423.13;6311768;22;20015;-76
2023/09/24 04:42:42;;;;;;;10.18;6.13;;;;;;;8.38;100.00;102426.16;6312042;22;20016;-75
2023/09/24 04:45:11;;;;;;;8.75;6.35;;;;;;;8.34;100.00;102426.91;6311908;22;20071;-76
2023/09/24 04:47:42;;;;;;;11.07;7.10;;;;;;;8.34;100.00;102426.91;6310429;22;20018;-77
2023/09/24 04:50:12;;;;;;;10.85;6.43;;;;;;;8.33;100.00;102432.59;6311605;22;20020;-77
2023/09/24 04:52:41;;;;;;;7.88;6.00;;;;;;;8.31;100.00;102432.19;6312092;22;20046;-77
2023/09/24 04:55:09;;;;;;;11.48;6.78;;;;;;;8.26;100.00;102424.63;6312134;22;20035;-77
2023/09/24 04:57:36;;;;;;;8.48;7.03;;;;;;;8.26;100.00;102438.66;6310456;22;20012;-76
2023/09/24 05:00:04;;;;;;;8.13;6.45;;;;;;;8.28;100.00;102440.94;6312227;22;20433;-77
2023/09/24 05:02:30;;;;;;;12.75;6.32;;;;;;;8.25;100.00;102437.13;6283940;22;20108;-75
2023/09/24 05:04:57;;;;;;;9.98;6.40;;;;;;;8.26;100.00;102445.84;6310461;22;20070;-77
2023/09/24 05:07:30;;;;;;;11.02;6.60;;;;;;;8.25;100.00;102439.03;6309520;22;20019;-77
2023/09/24 05:10:01;;;;;;;8.98;6.80;;;;;;;8.24;100.00;102442.81;6310958;22;20022;-77
2023/09/24 05:12:28;;;;;;;7.15;6.45;;;;;;;8.22;100.00;102437.13;6309603;22;20055;-76
2023/09/24 05:14:54;;;;;;;11.45;6.57;;;;;;;8.21;100.00;102444.34;6312298;22;20015;-76
2023/09/24 05:17:24;;;;;;;7.25;6.28;;;;;;;8.17;100.00;102440.94;6310983;22;20047;-79
2023/09/24 05:19:51;;;;;;;11.27;6.70;;;;;;;8.16;100.00;102442.06;6310831;22;20043;-80
2023/09/24 05:22:18;;;;;;;11.70;7.15;;;;;;;8.16;100.00;102436.75;6309911;22;20066;-77
2023/09/24 05:24:44;;;;;;;8.02;7.22;;;;;;;8.14;100.00;102441.69;6310425;22;20019;-76
2023/09/24 05:27:17;;;;;;;11.55;7.50;;;;;;;8.15;100.00;102445.09;6309232;22;20105;-78
2023/09/24 05:29:48;;;;;;;9.90;6.80;;;;;;;8.15;100.00;102445.09;6310283;22;20030;-77
2023/09/24 05:32:15;;;;;;;10.20;6.95;;;;;;;8.14;100.00;102444.34;6311307;22;20016;-79
2023/09/24 05:34:44;;;;;;;8.50;7.13;;;;;;;8.14;100.00;102440.94;6284416;22;20012;-77
2023/09/24 05:37:11;;;;;;;15.73;7.13;;;;;;;8.16;100.00;102446.63;6309961;22;20446;-77
2023/09/24 05:39:38;;;;;;;9.57;6.75;;;;;;;8.18;100.00;102447.00;6283998;22;20488;-76
2023/09/24 05:42:05;;;;;;;9.25;7.22;;;;;;;8.22;100.00;102448.50;6312025;22;20393;-77
2023/09/24 05:44:35;;;;;;;11.38;7.07;;;;;;;8.24;100.00;102456.09;6309476;22;20483;-76
2023/09/24 05:47:06;;;;;;;11.98;6.55;;;;;;;8.27;100.00;102452.69;6309514;22;20011;-76
2023/09/24 05:49:39;;;;;;;12.85;7.35;;;;;;;8.32;100.00;102462.91;6311789;22;20445;-79
2023/09/24 05:52:06;;;;;;;10.60;6.97;;;;;;;8.35;100.00;102460.28;6284070;22;20020;-78
2023/09/24 05:54:33;;;;;;;7.55;6.75;;;;;;;8.39;100.00;102462.94;6284287;22;20016;-78
2023/09/24 05:57:01;;;;;;;9.18;7.25;;;;;;;8.44;100.00;102467.06;6312360;22;20011;-79
2023/09/24 05:59:36;;;;;;;14.00;7.65;;;;;;;8.47;100.00;102463.66;6311764;22;20024;-79
2023/09/24 06:02:03;;;;;;;14.10;7.68;;;;;;;8.49;100.00;102471.97;6311380;22;20015;-79
2023/09/24 06:04:30;;;;;;;12.15;7.55;;;;;;;8.53;100.00;102475.38;6310263;22;20513;-76
2023/09/24 06:06:57;;;;;;;9.93;7.60;;;;;;;8.56;100.00;102477.28;6311771;22;20011;-79
2023/09/24 06:09:24;;;;;;;7.88;6.95;;;;;;;8.62;100.00;102473.84;6311388;22;20454;-80
2023/09/24 06:11:50;;;;;;;9.95;7.50;;;;;;;8.69;100.00;102473.84;6312009;22;20074;-78
2023/09/24 06:14:20;;;;;;;10.60;7.40;;;;;;;8.76;100.00;102486.34;6309713;22;20026;-79
2023/09/24 06:16:49;;;;;;;12.60;7.10;;;;;;;8.83;100.00;102485.53;6311336;22;20020;-76
2023/09/24 06:19:18;;;;;;;11.23;7.60;;;;;;;8.88;100.00;102485.91;6311112;22;20047;-78
2023/09/24 06:21:54;;;;;;;10.43;7.35;;;;;;;8.95;100.00;102487.78;6309646;22;20054;-79
2023/09/24 06:24:24;;;;;;;13.50;7.25;;;;;;;9.02;100.00;102493.06;6310940;22;20066;-79
2023/09/24 06:26:51;;;;;;;15.50;7.63;;;;;;;9.10;100.00;102496.47;6311890;22;20082;-77
2023/09/24 06:29:18;;;;;;;7.90;7.10;;;;;;;9.14;100.00;102497.97;6311164;22;20054;-77
2023/09/24 06:31:50;;;;;;;14.98;8.30;;;;;;;9.23;100.00;102500.19;6310765;22;20020;-79
2023/09/24 06:34:17;;;;;;;8.73;7.82;;;;;;;9.61;100.00;102499.19;6309930;22;20358;-79
2023/09/24 06:36:44;;;;;;;8.98;8.00;;;;;;;10.10;100.00;102491.25;6311797;22;20016;-80
2023/09/24 06:39:13;;;;;;;10.32;8.25;;;;;;;10.46;100.00;102502.34;6309295;22;20020;-85
2023/09/24 06:41:40;;;;;;;10.98;7.75;;;;;;;10.48;100.00;102510.69;6309505;22;20015;-80
2023/09/24 06:44:08;;;;;;;8.88;7.50;;;;;;;10.33;100.00;102508.19;6309875;22;20016;-77
2023/09/24 06:46:36;;;;;;;12.48;7.63;;;;;;;10.19;100.00;102515.50;6310555;22;20023;-77
2023/09/24 06:49:03;;;;;;;8.38;7.53;;;;;;;10.11;100.00;102520.13;6311752;22;20040;-76
2023/09/24 06:51:30;;;;;;;8.35;6.53;;;;;;;10.11;100.00;102525.44;6311097;22;20138;-76
2023/09/24 06:53:57;;;;;;;10.32;7.00;;;;;;;10.09;100.00;102522.41;6309852;22;20023;-76
2023/09/24 06:56:23;;;;;;;8.75;7.15;;;;;;;10.09;100.00;102526.97;6309104;22;20016;-76
2023/09/24 06:58:50;;;;;;;8.95;6.65;;;;;;;10.10;100.00;102533.81;6283629;22;20024;-76
2023/09/24 07:01:17;;;;;;;10.82;7.20;;;;;;;10.10;100.00;102539.16;6311159;22;20365;-76
2023/09/24 07:03:43;;;;;;;9.20;6.72;;;;;;;10.10;100.00;102531.16;6311582;22;20468;-76
2023/09/24 07:06:10;;;;;;;7.10;6.40;;;;;;;10.18;100.00;102532.63;6309434;22;20058;-78
2023/09/24 07:08:37;;;;;;;10.80;6.70;;;;;;;10.30;100.00;102548.16;6283781;22;20342;-78
2023/09/24 07:11:34;;;;;;;7.63;6.20;;;;;;;10.42;100.00;102541.56;6284013;22;20125;-78
2023/09/24 07:14:01;;;;;;;7.30;6.13;;;;;;;10.45;100.00;102551.41;6309649;22;20043;-81
2023/09/24 07:16:28;;;;;;;10.13;6.50;;;;;;;10.51;100.00;102547.19;6308845;22;20065;-83
2023/09/24 07:18:56;;;;;;;8.65;6.28;;;;;;;10.57;100.00;102537.63;6310455;22;20039;-83
2023/09/24 07:21:26;;;;;;;7.90;6.15;;;;;;;10.69;100.00;102537.88;6309921;22;20039;-82
2023/09/24 07:24:03;;;;;;;6.65;6.10;;;;;;;10.80;100.00;102537.75;6311864;22;20449;-81
2023/09/24 07:26:29;;;;;;;8.35;6.13;;;;;;;10.90;100.00;102544.88;6310203;22;20011;-80
2023/09/24 07:28:56;;;;;;;7.13;6.43;;;;;;;10.98;100.00;102535.66;6309184;22;20024;-82
2023/09/24 07:31:25;;;;;;;7.10;6.00;;;;;;;11.12;100.00;102537.41;6311327;22;20011;-81
2023/09/24 07:33:58;;;;;;;10.35;6.15;;;;;;;11.26;100.00;102542.53;6312481;22;20087;-82
2023/09/24 07:36:25;;;;;;;8.75;5.90;;;;;;;11.40;100.00;102541.63;6313416;22;20470;-83
2023/09/24 07:38:54;;;;;;;9.48;5.88;;;;;;;11.51;100.00;102547.56;6311363;22;20055;-82
2023/09/24 07:41:21;;;;;;;11.73;5.78;;;;;;;11.63;100.00;102548.91;6311797;22;20042;-82
2023/09/24 07:43:48;;;;;;;9.50;5.93;;;;;;;11.72;100.00;102549.16;6311567;22;20003;-82
2023/09/24 07:46:16;;;;;;;6.78;5.57;;;;;;;11.78;100.00;102541.50;6312044;22;20015;-83
2023/09/24 07:48:44;;;;;;;6.35;5.07;;;;;;;11.90;100.00;102551.63;6312437;22;20099;-84
2023/09/24 07:51:11;;;;;;;5.65;4.72;;;;;;;12.02;100.00;102551.78;6312698;22;20023;-85
2023/09/24 07:53:38;;;;;;;5.10;4.43;;;;;;;12.15;100.00;102549.31;6311322;22;20015;-83
2023/09/24 07:56:09;;;;;;;5.97;4.50;;;;;;;12.28;100.00;102538.81;6311636;22;20011;-83
2023/09/24 07:58:38;;;;;;;4.75;3.90;;;;;;;12.43;100.00;102555.31;6312289;22;20446;-83
2023/09/24 08:01:05;;;;;;;9.50;3.60;;;;;;;12.57;100.00;102541.72;6313100;22;20062;-84
2023/09/24 08:03:32;;;;;;;13.80;4.03;;;;;;;12.73;100.00;102554.41;6312202;22;20078;-85
2023/09/24 08:05:59;;;;;;;3.60;3.35;;;;;;;12.85;100.00;102553.78;6311480;22;20662;-86
2023/09/24 08:08:27;;;;;;;4.18;3.00;;;;;;;12.93;98.00;102555.94;6311566;22;20020;-84
2023/09/24 08:11:13;;;;;;;3.28;2.95;;;;;;;13.06;98.76;102566.75;6312908;22;20012;-83
2023/09/24 08:13:40;;;;;;;3.53;3.08;;;;;;;13.15;96.80;102564.28;6310700;22;20020;-83
2023/09/24 08:16:07;;;;;;;9.25;3.20;;;;;;;13.22;95.81;102568.75;6312879;22;20087;-83
2023/09/24 08:18:34;;;;;;;3.97;3.15;;;;;;;13.31;96.14;102559.00;6315236;22;20394;-84
2023/09/24 08:21:01;;;;;;;7.35;3.30;;;;;;;13.40;94.55;102561.13;6315912;22;20066;-84
2023/09/24 08:23:28;;;;;;;3.85;3.40;;;;;;;13.52;92.87;102562.41;6313046;22;20019;-84
2023/09/24 08:25:54;;;;;;;3.22;2.85;;;;;;;13.64;92.44;102559.06;6311704;22;20454;-85
2023/09/24 08:28:21;;;;;;;4.18;2.92;;;;;;;13.85;93.24;102563.19;6313072;22;20020;-80
2023/09/24 08:30:47;;;;;;;4.97;2.78;;;;;;;14.03;90.44;102574.97;6312639;22;20016;-79
2023/09/24 08:33:14;;;;;;;5.22;2.78;;;;;;;14.23;90.59;102576.81;6310229;22;20107;-80
2023/09/24 08:35:41;;;;;;;4.20;2.35;;;;;;;14.39;89.21;102576.06;6310162;22;20050;-78
2023/09/24 08:38:08;;;;;;;4.20;2.25;;;;;;;14.53;86.16;102578.38;6312242;22;20019;-83
2023/09/24 08:40:35;;;;;;;4.60;2.35;;;;;;;14.70;87.55;102584.47;6310963;22;20019;-82
2023/09/24 08:43:09;;;;;;;5.13;2.30;;;;;;;14.90;86.13;102577.78;6312607;22;20024;-82
2023/09/24 08:45:37;;;;;;;4.68;2.20;;;;;;;14.98;86.04;102587.13;6313533;22;20472;-82
2023/09/24 08:48:08;;;;;;;3.15;2.40;;;;;;;15.17;84.52;102580.09;6313331;22;20019;-80
2023/09/24 08:50:38;;;;;;;7.78;2.78;;;;;;;15.23;83.52;102581.06;6311661;22;20130;-79
2023/09/24 08:53:11;;;;;;;7.23;2.73;;;;;;;15.38;83.45;102586.78;6313270;22;20019;-78
2023/09/24 08:55:41;;;;;;;4.43;2.40;;;;;;;15.53;84.11;102587.88;6311014;22;20012;-80
2023/09/24 08:58:08;;;;;;;4.15;2.65;;;;;;;15.70;83.59;102575.09;6314671;22;20008;-84
2023/09/24 09:00:36;;;;;;;3.47;2.22;;;;;;;15.81;80.46;102580.16;6313976;22;20012;-82
2023/09/24 09:03:03;;;;;;;5.28;2.20;;;;;;;15.91;80.50;102579.06;6313133;22;20426;-76
2023/09/24 09:05:35;;;;;;;4.35;2.42;;;;;;;16.04;80.53;102579.03;6309958;22;20023;-78
2023/09/24 09:08:03;;;;;;;5.25;2.10;;;;;;;16.11;78.08;102574.19;6313388;22;20550;-79
2023/09/24 09:10:37;;;;;;;2.42;1.80;;;;;;;16.31;80.32;102566.63;6309983;22;20453;-81
2023/09/24 09:13:18;;;;;;;4.20;2.20;;;;;;;16.49;78.96;102568.69;6313801;22;20016;-79
2023/09/24 09:15:46;;;;;;;4.28;1.75;;;;;;;16.62;79.53;102566.69;6313356;22;20016;-80
2023/09/24 09:18:25;;;;;;;3.35;2.10;;;;;;;16.75;77.68;102564.00;6312560;22;20074;-79
2023/09/24 09:20:59;;;;;;;4.18;2.30;;;;;;;16.86;76.76;102566.28;6310690;22;20051;-79
2023/09/24 09:23:37;;;;;;;3.20;2.00;;;;;;;17.00;77.38;102555.00;6310102;22;20027;-78
2023/09/24 09:26:05;;;;;;;3.83;2.00;;;;;;;17.04;74.90;102552.19;6311696;22;20015;-81
2023/09/24 09:28:34;;;;;;;3.15;2.33;;;;;;;17.16;74.43;102554.06;6312182;22;20094;-79
2023/09/24 09:31:10;;;;;;;2.60;1.73;;;;;;;17.23;74.46;102559.16;6311178;22;20058;-78
2023/09/24 09:33:38;;;;;;;3.38;1.80;;;;;;;17.32;74.99;102554.56;6310351;22;20747;-78
2023/09/24 09:36:30;;;;;;;4.10;2.00;;;;;;;17.50;75.26;102551.19;6311919;22;20060;-79
2023/09/24 09:38:58;;;;;;;3.88;1.90;;;;;;;17.53;74.58;102546.88;6312165;22;20016;-78
2023/09/24 09:41:28;;;;;;;2.88;2.13;;;;;;;17.61;74.40;102546.13;6308827;22;20016;-79
2023/09/24 09:44:03;;;;;;;6.13;2.08;;;;;;;17.63;73.49;102541.06;6312955;22;20452;-78
2023/09/24 09:46:31;;;;;;;6.63;1.80;;;;;;;17.56;73.08;102538.66;6310058;22;20091;-79
2023/09/24 09:49:07;;;;;;;2.65;1.63;;;;;;;17.67;73.40;102524.78;6311308;22;20027;-78
2023/09/24 09:51:43;;;;;;;3.80;1.75;;;;;;;17.70;71.77;102528.53;6311958;22;20015;-79
2023/09/24 09:54:12;;;;;;;1.98;1.30;;;;;;;17.67;72.33;102527.47;6312192;22;20046;-79
2023/09/24 09:56:41;;;;;;;2.63;1.58;;;;;;;17.67;72.08;102519.41;6309643;22;20094;-79
2023/09/24 09:59:08;;;;;;;3.08;1.60;;;;;;;17.66;71.93;102512.50;6312118;22;20026;-79
2023/09/24 10:01:36;;;;;;;2.30;1.48;;;;;;;17.66;72.63;102518.66;6313742;22;20015;-77
2023/09/24 10:04:06;;;;;;;3.17;1.67;;;;;;;17.84;73.97;102522.56;6310531;22;20022;-76
2023/09/24 10:06:35;;;;;;;3.33;1.70;;;;;;;17.90;72.95;102521.53;6311830;22;20036;-80
2023/09/24 10:09:32;;;;;;;7.53;1.90;;;;;;;17.96;71.43;102525.16;6309559;22;20058;-77
2023/09/24 10:12:00;;;;;;;2.97;1.67;;;;;;;17.89;70.91;102513.91;6294734;22;20392;-77
2023/09/24 10:14:48;;;;;;;3.30;1.60;;;;;;;17.95;72.00;102517.50;6283888;22;20016;-77
2023/09/24 10:17:26;;;;;;;3.75;1.70;;;;;;;18.08;72.01;102523.50;6309959;22;20098;-77
2023/09/24 10:20:08;;;;;;;3.92;1.73;;;;;;;18.15;70.59;102517.81;6310261;22;20024;-78
2023/09/24 10:22:35;;;;;;;;;;;;;;;18.19;72.42;102523.81;6309591;22;20027;-79
2023/09/24 10:25:30;;;;;;;3.60;1.73;;;;;;;18.17;70.34;102515.41;6310860;22;19919;-77
2023/09/24 10:28:06;;;;;;;3.38;1.63;;;;;;;18.14;68.77;102515.56;6312059;22;20361;-78
2023/09/24 10:31:09;;;;;;;2.50;1.75;;;;;;;18.14;69.84;102520.94;6309875;22;20020;-79
2023/09/24 10:33:53;;;;;;;3.97;1.75;;;;;;;18.20;69.63;102508.38;6310939;22;20020;-77
2023/09/24 10:36:23;;;;;;;3.30;1.77;;;;;;;18.21;69.35;102507.94;6310541;22;20073;-78
2023/09/24 10:39:11;;;;;;;4.38;1.63;;;;;;;18.20;69.18;102508.38;6312813;22;20011;-78
2023/09/24 10:42:09;;;;;;;2.97;1.60;;;;;;;18.20;68.33;102514.50;6284601;22;20016;-77
2023/09/24 10:44:39;;;;;;;3.13;1.70;;;;;;;18.24;68.95;102508.97;6312164;22;20137;-77
2023/09/24 10:47:25;;;;;;;6.45;1.70;;;;;;;18.21;68.31;102517.97;6312099;22;20468;-79
2023/09/24 10:50:04;;;;;;;5.20;1.50;;;;;;;18.20;68.23;102513.75;6312488;22;20123;-80
2023/09/24 10:53:00;;;;;;;3.47;1.75;;;;;;;18.21;66.76;102502.53;6311590;22;20509;-79
2023/09/24 10:55:30;;;;;;;5.95;1.58;;;;;;;18.28;67.87;102507.63;6312272;22;20020;-78
2023/09/24 10:58:02;;;;;;;4.32;1.50;;;;;;;18.33;66.12;102498.94;6313254;22;20035;-80
2023/09/24 11:00:36;;;;;;;2.33;1.42;;;;;;;18.30;65.24;102497.16;6309799;22;20020;-78
2023/09/24 11:03:09;;;;;;;3.78;1.40;;;;;;;18.41;67.39;102501.31;6283763;22;20024;-78
2023/09/24 11:05:39;;;;;;;3.97;1.50;;;;;;;18.40;64.55;102505.94;6310786;22;20012;-78
2023/09/24 11:08:07;;;;;;;2.08;1.40;;;;;;;18.33;63.33;102507.03;6311848;22;20441;-77
2023/09/24 11:10:34;;;;;;;2.33;1.50;;;;;;;18.32;64.56;102502.09;6311812;22;20012;-79
2023/09/24 11:13:03;;;;;;;3.92;1.50;;;;;;;18.42;66.13;102508.94;6284606;22;20020;-79
2023/09/24 11:15:32;;;;;;;3.00;1.38;;;;;;;18.41;63.68;102501.31;6310751;22;20043;-76
2023/09/24 11:18:00;;;;;;;2.35;1.40;;;;;;;18.41;64.90;102506.69;6311176;22;20099;-77
2023/09/24 11:20:31;;;;;;;1.85;1.20;;;;;;;18.42;64.15;102502.81;6309755;22;20011;-77
2023/09/24 11:23:02;;;;;;;1.63;1.20;;;;;;;18.48;64.97;102509.09;6309823;22;20449;-77
2023/09/24 11:25:29;;;;;;;3.85;1.55;;;;;;;18.54;63.72;102505.34;6309623;22;20099;-77
2023/09/24 11:28:01;;;;;;;1.95;1.20;;;;;;;18.58;64.97;102503.25;6311916;22;20091;-76
2023/09/24 11:30:45;;;;;;;1.40;1.30;;;;;;;18.59;64.30;102498.59;6310582;22;20085;-78
2023/09/24 11:33:17;;;;;;;5.20;1.40;;;;;;;18.65;63.33;102494.88;6311360;22;20540;-77